Aviation Digital Data Service (ADDS)

Output produced by METARs form (1245 UTC 21 February 2018)
found at http://www.aviationweather.gov/adds/metars/
 
TAF FIMR 211110Z 2112/2206 06010G30KT 8000 -SHRA FEW010 SCT015 BKN050 
     PROB30 
     TEMPO 2114/2200 3000 SHRA TSRA FEW005 FEW012CB BKN013 BKN045
       
TAF FIMP 211100Z 2112/2218 07005KT 9999 SCT016 
     TEMPO 2113/2200 7000 -SHRA FEW010 BKN015 BKN050 
     PROB30 
     TEMPO 2114/2118 3000 SHRA TSRA FEW005 FEW012CB BKN013 BKN045 
     BECMG 2118/2120 33003KT 
     BECMG 2204/2206 06005KT